Time;durP1;ratioP1;P1;durP2;ratioP2;P2;SDS_P1;SDS_P2;PMS_P1;PMS_P2;Temp;Humidity;BMP_temperature;BMP_pressure;BME280_temperature;BME280_humidity;BME280_pressure;Samples;Min_cycle;Max_cycle;Signal;HPM_P1;HPM_P2
2023/10/24 00:04:53;;;;;;;73.90;41.70;;;;;;;6.54;92.59;98358.70;436305;1255;112104;-39
2023/10/24 00:14:58;;;;;;;53.90;33.20;;;;;;;6.38;92.56;98354.94;436146;1247;107329;-41
2023/10/24 00:25:01;;;;;;;50.50;28.10;;;;;;;6.37;92.49;98355.65;436288;1248;98954;-40
2023/10/24 00:35:05;;;;;;;48.90;29.40;;;;;;;6.31;92.27;98356.81;436147;1247;108471;-40
2023/10/24 00:45:09;;;;;;;61.10;34.50;;;;;;;6.18;92.53;98340.89;435950;1252;438643;-41
2023/10/24 00:55:14;;;;;;;70.20;41.70;;;;;;;6.04;92.58;98342.27;436488;1250;110474;-40
2023/10/24 01:05:17;;;;;;;56.20;33.30;;;;;;;6.01;92.69;98340.50;436361;1247;107043;-40
2023/10/24 01:15:21;;;;;;;57.10;36.10;;;;;;;5.94;92.41;98342.27;436887;1250;99857;-40
2023/10/24 01:25:28;;;;;;;60.00;34.00;;;;;;;5.92;92.58;98330.27;435220;1251;107230;-40
2023/10/24 01:35:32;;;;;;;55.10;30.20;;;;;;;5.85;92.52;98311.98;435353;1254;98823;-40
2023/10/24 01:45:36;;;;;;;62.70;38.10;;;;;;;5.74;92.65;98296.88;435334;1252;111965;-40
2023/10/24 01:55:40;;;;;;;52.80;32.20;;;;;;;5.73;92.83;98293.09;435349;1254;108291;-40
2023/10/24 02:05:43;;;;;;;64.20;33.10;;;;;;;5.71;92.54;98281.16;435067;1250;99231;-43
2023/10/24 02:15:46;;;;;;;51.40;30.80;;;;;;;5.73;92.91;98276.13;435263;1251;107414;-40
2023/10/24 02:25:50;;;;;;;43.20;27.60;;;;;;;5.86;92.97;98278.46;435366;1254;99352;-39
2023/10/24 02:35:53;;;;;;;57.50;30.40;;;;;;;6.02;93.43;98259.73;435262;1254;111320;-42
2023/10/24 02:46:02;;;;;;;43.70;27.10;;;;;;;6.15;93.75;98248.14;435217;1254;106919;-40
2023/10/24 02:56:05;;;;;;;38.60;23.60;;;;;;;6.36;93.98;98233.21;435162;1255;99236;-41
2023/10/24 03:16:17;;;;;;;36.90;20.10;;;;;;;7.01;94.67;98228.02;435159;1254;99221;-40
2023/10/24 03:26:21;;;;;;;41.20;22.40;;;;;;;7.36;95.11;98239.25;435484;1251;111106;-41
2023/10/24 03:36:25;;;;;;;34.70;21.60;;;;;;;7.35;94.63;98243.06;435174;1254;109482;-40
2023/10/24 03:46:32;;;;;;;33.80;19.20;;;;;;;7.22;94.18;98239.31;435331;1254;99261;-40
2023/10/24 03:56:36;;;;;;;34.70;18.80;;;;;;;7.20;94.23;98245.27;435391;1254;108658;-40
2023/10/24 04:16:42;;;;;;;36.40;22.10;;;;;;;7.42;94.62;98221.47;435420;1252;110959;-41
2023/10/24 04:26:46;;;;;;;44.50;22.80;;;;;;;7.29;94.37;98204.16;435314;1254;107840;-40
2023/10/24 04:36:50;;;;;;;30.50;20.50;;;;;;;7.29;94.59;98188.21;435154;1254;99251;-40
2023/10/24 05:27:07;;;;;;;63.70;37.40;;;;;;;7.20;94.05;98190.90;435350;1254;99224;-41
2023/10/24 05:47:13;;;;;;;71.60;41.50;;;;;;;7.10;94.09;98220.17;435177;1254;99259;-40
2023/10/24 05:57:16;;;;;;;67.90;42.10;;;;;;;7.11;94.34;98210.09;435219;1255;112116;-41
2023/10/24 06:07:20;;;;;;;55.20;34.90;;;;;;;7.26;94.97;98180.93;435257;1255;107252;-39
2023/10/24 06:17:24;;;;;;;41.90;26.20;;;;;;;7.60;95.16;98188.55;435418;1253;99874;-40
2023/10/24 06:27:27;;;;;;;52.60;25.00;;;;;;;7.92;95.22;98161.02;435250;1254;107222;-40
2023/10/24 06:37:31;;;;;;;30.00;19.00;;;;;;;8.34;95.40;98170.50;435197;1255;99238;-40
2023/10/24 06:47:34;;;;;;;25.60;16.80;;;;;;;8.94;95.87;98180.63;435315;1253;112122;-40
2023/10/24 06:57:38;;;;;;;40.30;19.50;;;;;;;9.51;95.69;98173.77;435177;1254;108173;-40
2023/10/24 07:08:06;;;;;;;24.00;16.00;;;;;;;9.93;95.42;98151.31;435280;1250;99228;-40
2023/10/24 07:18:14;;;;;;;28.60;16.70;;;;;;;10.59;95.59;98138.98;435272;1251;108009;-41
2023/10/24 07:28:18;;;;;;;21.60;15.60;;;;;;;11.91;96.51;98108.16;435280;1255;98009;-41
2023/10/24 07:38:21;;;;;;;32.00;16.40;;;;;;;12.29;94.34;98093.16;435243;1257;111593;-41
2023/10/24 07:48:25;;;;;;;31.10;16.10;;;;;;;11.87;93.59;98100.16;435108;1255;107845;-42
2023/10/24 08:08:32;;;;;;;31.10;17.60;;;;;;;12.82;94.68;98092.81;435290;1254;108399;-41
2023/10/24 08:18:37;;;;;;;24.80;15.20;;;;;;;13.06;93.20;98090.14;435210;1255;98866;-41
2023/10/24 08:28:43;;;;;;;32.30;16.40;;;;;;;13.13;92.53;98084.13;435391;1249;111386;-40
2023/10/24 08:38:50;;;;;;;26.70;15.40;;;;;;;13.19;92.25;98072.47;435095;1255;108184;-41
2023/10/24 08:48:56;;;;;;;25.10;15.20;;;;;;;13.56;92.06;98063.84;435365;1255;99559;-45
2023/10/24 08:59:00;;;;;;;21.40;12.40;;;;;;;14.02;91.68;98052.74;435161;1251;108319;-40
2023/10/24 09:09:03;;;;;;;20.00;12.10;;;;;;;14.43;91.36;98052.88;435219;1255;99224;-40
2023/10/24 09:19:12;;;;;;;32.10;14.10;;;;;;;14.62;90.74;98033.23;435338;1253;112084;-41
2023/10/24 09:29:17;;;;;;;22.50;12.90;;;;;;;14.72;90.41;98011.22;435295;1251;107546;-40
2023/10/24 09:39:20;;;;;;;20.80;12.20;;;;;;;15.06;89.74;98001.67;435236;1254;98831;-41
2023/10/24 09:49:26;;;;;;;22.20;12.00;;;;;;;15.24;89.39;97996.41;435115;1255;108152;-41
2023/10/24 09:59:33;;;;;;;17.80;12.00;;;;;;;15.40;88.75;97991.33;435350;1251;99104;-41
2023/10/24 10:09:36;;;;;;;17.90;11.90;;;;;;;15.42;87.52;97995.20;435214;1255;111682;-41
2023/10/24 10:40:26;;;;;;;18.00;10.90;;;;;;;16.49;86.97;97946.39;435304;1264;107225;-41
2023/10/24 10:50:32;;;;;;;14.60;9.90;;;;;;;16.51;86.09;97921.07;435253;1249;99237;-39
2023/10/24 11:00:38;;;;;;;19.20;9.00;;;;;;;16.67;85.13;97899.12;435043;1255;112277;-41
2023/10/24 11:10:54;;;;;;;14.20;7.60;;;;;;;16.75;83.92;97888.77;435262;1254;107468;-41
2023/10/24 11:20:58;;;;;;;13.80;9.00;;;;;;;16.83;84.15;97895.04;435303;1255;99250;-40
2023/10/24 11:31:18;;;;;;;16.20;9.70;;;;;;;16.96;83.80;97888.05;435374;1251;109258;-40
2023/10/24 11:41:22;;;;;;;21.00;9.20;;;;;;;17.00;82.79;97873.85;435344;1255;99227;-41
2023/10/24 12:01:29;;;;;;;13.70;7.10;;;;;;;17.27;81.71;97858.95;435342;1256;107428;-41
2023/10/24 12:21:36;;;;;;;10.70;7.00;;;;;;;17.01;81.66;97837.07;435261;1255;106666;-42
2023/10/24 12:31:40;;;;;;;9.90;5.40;;;;;;;17.19;81.00;97814.36;435257;1264;98822;-40
2023/10/24 12:51:46;;;;;;;8.90;5.50;;;;;;;16.98;79.45;97761.48;435151;1263;108367;-42
2023/10/24 13:01:49;;;;;;;10.90;6.10;;;;;;;16.77;78.60;97751.27;435333;1251;99231;-40
2023/10/24 13:11:52;;;;;;;10.20;5.50;;;;;;;16.63;79.28;97728.67;435276;1257;108716;-40
2023/10/24 13:21:56;;;;;;;7.60;6.20;;;;;;;16.36;79.19;97725.30;435434;1254;98711;-40
2023/10/24 13:32:01;;;;;;;14.50;8.20;;;;;;;16.01;79.01;97711.77;435414;1254;111219;-41
2023/10/24 13:42:05;;;;;;;8.50;6.70;;;;;;;15.80;79.37;97719.86;435164;1255;108053;-39
2023/10/24 13:52:09;;;;;;;11.50;6.90;;;;;;;15.68;79.77;97716.77;435354;1249;99185;-43
2023/10/24 14:22:23;;;;;;;9.20;6.60;;;;;;;14.91;80.04;97664.33;435237;1257;112072;-41
2023/10/24 14:32:26;;;;;;;10.50;8.30;;;;;;;14.65;80.35;97647.80;435246;1251;108657;-41
2023/10/24 14:42:30;;;;;;;16.40;13.10;;;;;;;14.45;80.77;97634.38;435218;1251;99230;-41
2023/10/24 14:52:34;;;;;;;15.30;11.10;;;;;;;14.24;81.26;97625.80;435233;1254;107953;-41
2023/10/24 15:12:41;;;;;;;23.20;11.70;;;;;;;13.54;82.18;97599.14;435220;1254;110830;-41
2023/10/24 15:32:48;;;;;;;17.70;12.30;;;;;;;13.20;83.19;97605.59;435223;1251;99453;-41
2023/10/24 15:42:52;;;;;;;19.80;15.20;;;;;;;13.02;83.69;97595.45;435037;1251;108256;-43
2023/10/24 15:52:56;;;;;;;24.90;18.10;;;;;;;12.91;84.30;97583.11;435267;1256;99255;-41
2023/10/24 16:03:00;;;;;;;28.20;19.80;;;;;;;12.69;84.53;97553.52;435306;1254;111175;-41
2023/10/24 16:13:04;;;;;;;32.10;21.60;;;;;;;12.52;84.99;97536.68;435200;1251;108122;-40
2023/10/24 16:23:08;;;;;;;35.90;23.80;;;;;;;12.43;85.52;97525.25;435158;1254;98854;-40
2023/10/24 16:33:12;;;;;;;29.90;22.30;;;;;;;12.36;86.18;97524.27;435279;1251;108918;-40
2023/10/24 16:43:15;;;;;;;33.50;23.80;;;;;;;12.33;86.77;97512.13;435436;1250;99215;-40
2023/10/24 16:53:19;;;;;;;39.40;27.40;;;;;;;12.31;86.97;97483.92;435248;1254;112381;-41
2023/10/24 17:03:23;;;;;;;33.50;23.60;;;;;;;12.22;87.76;97454.30;435259;1251;107750;-40
2023/10/24 17:13:26;;;;;;;37.60;23.40;;;;;;;12.18;88.41;97448.91;435309;1254;99346;-41
2023/10/24 17:23:30;;;;;;;30.00;22.40;;;;;;;12.18;88.67;97446.58;435397;1255;109467;-40
2023/10/24 17:33:33;;;;;;;29.90;23.10;;;;;;;12.18;88.86;97446.36;435203;1255;98097;-40
2023/10/24 17:53:42;;;;;;;31.50;21.10;;;;;;;12.24;89.72;97411.10;435197;1254;108033;-42
2023/10/24 18:03:55;;;;;;;23.80;18.40;;;;;;;12.23;89.92;97376.92;435280;1254;99082;-41
2023/10/24 18:14:03;;;;;;;25.10;18.20;;;;;;;12.23;90.04;97371.92;435186;1251;108173;-40
2023/10/24 18:24:07;;;;;;;29.90;19.60;;;;;;;12.20;90.24;97358.90;435281;1254;99179;-40
2023/10/24 18:34:11;;;;;;;26.50;20.40;;;;;;;12.18;90.51;97337.45;435291;1255;110313;-40
2023/10/24 18:44:13;;;;;;;28.40;19.20;;;;;;;12.14;90.80;97338.02;435144;1251;108159;-39
2023/10/24 18:54:19;;;;;;;28.60;19.70;;;;;;;12.12;90.97;97328.58;435323;1252;99224;-41
2023/10/24 19:14:25;;;;;;;31.00;18.00;;;;;;;12.06;91.37;97301.35;435225;1254;99237;-44
2023/10/24 19:24:29;;;;;;;26.50;19.00;;;;;;;12.04;91.55;97292.92;435280;1250;111764;-41
2023/10/24 19:34:32;;;;;;;26.00;18.20;;;;;;;12.01;91.76;97290.30;435327;1253;107563;-41
2023/10/24 19:44:37;;;;;;;28.40;19.00;;;;;;;12.03;91.86;97294.27;435178;1263;99260;-41
2023/10/24 19:54:40;;;;;;;23.60;18.10;;;;;;;12.07;91.88;97285.36;435396;1254;108036;-40
2023/10/24 20:14:54;;;;;;;30.00;19.00;;;;;;;12.09;92.09;97260.83;435161;1254;111378;-41
2023/10/24 20:25:04;;;;;;;31.90;22.50;;;;;;;12.11;92.14;97249.20;435227;1251;108382;-39
2023/10/24 20:35:11;;;;;;;31.40;22.10;;;;;;;12.11;92.28;97233.79;435271;1251;97996;-41
2023/10/24 20:45:16;;;;;;;39.60;24.50;;;;;;;12.12;92.36;97223.02;435212;1251;107208;-40
2023/10/24 20:55:20;;;;;;;30.80;23.00;;;;;;;12.12;92.43;97216.66;435275;1254;98846;-41
2023/10/24 21:15:30;;;;;;;30.30;23.30;;;;;;;12.16;92.61;97176.88;435247;1254;109445;-41
2023/10/24 21:25:34;;;;;;;31.80;24.00;;;;;;;12.14;92.92;97156.34;435168;1254;99224;-40
2023/10/24 21:35:40;;;;;;;39.40;26.40;;;;;;;12.15;93.01;97134.02;435227;1251;109828;-41
2023/10/24 21:45:48;;;;;;;33.20;25.10;;;;;;;12.19;93.30;97112.67;435215;1253;99243;-41
2023/10/24 21:55:55;;;;;;;33.10;24.40;;;;;;;12.20;93.34;97098.21;435268;1254;110762;-45
2023/10/24 22:05:59;;;;;;;30.80;22.80;;;;;;;12.24;93.60;97090.96;435295;1251;106909;-41
2023/10/24 22:16:03;;;;;;;30.50;22.70;;;;;;;12.28;93.76;97079.73;435187;1252;99257;-40
2023/10/24 22:26:06;;;;;;;32.70;23.50;;;;;;;12.29;93.95;97065.43;435314;1252;106839;-41
2023/10/24 22:36:10;;;;;;;38.10;23.80;;;;;;;12.36;94.17;97056.58;435100;1264;98894;-41
2023/10/24 22:46:13;;;;;;;35.40;24.00;;;;;;;12.41;94.31;97046.56;435110;1254;112044;-40
2023/10/24 22:56:18;;;;;;;38.00;22.80;;;;;;;12.45;94.57;97029.45;435176;1251;108179;-41
2023/10/24 23:06:22;;;;;;;39.20;24.00;;;;;;;12.51;94.78;97007.02;435133;1254;99372;-40
2023/10/24 23:16:25;;;;;;;31.90;21.20;;;;;;;12.61;94.97;96997.31;435029;1254;107805;-41
2023/10/24 23:26:29;;;;;;;33.50;21.30;;;;;;;12.62;95.03;96979.91;435223;1254;99328;-40
2023/10/24 23:36:33;;;;;;;29.10;18.50;;;;;;;12.62;95.22;96959.02;435250;1254;111606;-40
2023/10/24 23:46:36;;;;;;;40.70;15.90;;;;;;;12.68;95.49;96946.64;435205;1251;108678;-41
2023/10/24 23:56:40;;;;;;;32.00;12.90;;;;;;;12.77;95.97;96935.39;435225;1254;99256;-41
